sensor_id;sensor_type;location;lat;lon;timestamp;temperature;humidity
51988;DHT22;38003;52.012;4.346;2022-08-21T00:00:39;22.30;57.70
51988;DHT22;38003;52.012;4.346;2022-08-21T00:03:12;22.30;57.70
51988;DHT22;38003;52.012;4.346;2022-08-21T00:05:44;22.30;57.60
51988;DHT22;38003;52.012;4.346;2022-08-21T00:08:16;22.30;57.80
51988;DHT22;38003;52.012;4.346;2022-08-21T00:10:45;22.30;58.00
51988;DHT22;38003;52.012;4.346;2022-08-21T00:13:14;22.30;57.70
51988;DHT22;38003;52.012;4.346;2022-08-21T00:15:44;22.30;57.90
51988;DHT22;38003;52.012;4.346;2022-08-21T00:18:14;22.30;57.90
51988;DHT22;38003;52.012;4.346;2022-08-21T00:20:43;22.30;57.90
51988;DHT22;38003;52.012;4.346;2022-08-21T00:23:12;22.20;58.00
51988;DHT22;38003;52.012;4.346;2022-08-21T00:25:41;22.30;57.90
51988;DHT22;38003;52.012;4.346;2022-08-21T00:28:10;22.70;58.40
51988;DHT22;38003;52.012;4.346;2022-08-21T00:30:38;22.20;58.00
51988;DHT22;38003;52.012;4.346;2022-08-21T00:33:08;22.30;59.20
51988;DHT22;38003;52.012;4.346;2022-08-21T00:35:40;22.20;58.10
51988;DHT22;38003;52.012;4.346;2022-08-21T00:38:09;22.20;58.30
51988;DHT22;38003;52.012;4.346;2022-08-21T00:40:47;22.40;58.40
51988;DHT22;38003;52.012;4.346;2022-08-21T00:43:18;22.20;58.30
51988;DHT22;38003;52.012;4.346;2022-08-21T00:45:47;22.20;58.50
51988;DHT22;38003;52.012;4.346;2022-08-21T00:48:15;22.20;58.40
51988;DHT22;38003;52.012;4.346;2022-08-21T00:50:50;22.40;58.30
51988;DHT22;38003;52.012;4.346;2022-08-21T00:53:20;22.20;58.30
51988;DHT22;38003;52.012;4.346;2022-08-21T00:55:51;22.10;58.30
51988;DHT22;38003;52.012;4.346;2022-08-21T00:58:25;22.10;58.30
51988;DHT22;38003;52.012;4.346;2022-08-21T01:00:56;22.10;58.30
51988;DHT22;38003;52.012;4.346;2022-08-21T01:03:27;22.10;58.20
51988;DHT22;38003;52.012;4.346;2022-08-21T01:05:57;22.00;58.20
51988;DHT22;38003;52.012;4.346;2022-08-21T01:08:25;22.00;58.20
51988;DHT22;38003;52.012;4.346;2022-08-21T01:10:54;22.00;58.20
51988;DHT22;38003;52.012;4.346;2022-08-21T01:13:23;22.10;58.30
51988;DHT22;38003;52.012;4.346;2022-08-21T01:15:54;22.00;58.20
51988;DHT22;38003;52.012;4.346;2022-08-21T01:18:23;22.00;58.20
51988;DHT22;38003;52.012;4.346;2022-08-21T01:21:04;21.90;58.10
51988;DHT22;38003;52.012;4.346;2022-08-21T01:23:34;21.90;58.30
51988;DHT22;38003;52.012;4.346;2022-08-21T01:26:03;21.80;58.30
51988;DHT22;38003;52.012;4.346;2022-08-21T01:28:34;21.80;58.30
51988;DHT22;38003;52.012;4.346;2022-08-21T01:31:06;21.90;58.20
51988;DHT22;38003;52.012;4.346;2022-08-21T01:33:35;21.80;58.10
51988;DHT22;38003;52.012;4.346;2022-08-21T01:36:10;21.70;58.10
51988;DHT22;38003;52.012;4.346;2022-08-21T01:38:52;21.70;58.20
51988;DHT22;38003;52.012;4.346;2022-08-21T01:41:20;21.70;58.20
51988;DHT22;38003;52.012;4.346;2022-08-21T01:43:48;21.70;58.20
51988;DHT22;38003;52.012;4.346;2022-08-21T01:46:16;21.70;58.10
51988;DHT22;38003;52.012;4.346;2022-08-21T01:48:45;21.70;58.30
51988;DHT22;38003;52.012;4.346;2022-08-21T01:51:14;21.70;58.30
51988;DHT22;38003;52.012;4.346;2022-08-21T01:53:42;21.70;58.20
51988;DHT22;38003;52.012;4.346;2022-08-21T01:56:12;21.60;58.30
51988;DHT22;38003;52.012;4.346;2022-08-21T01:58:43;21.60;58.50
51988;DHT22;38003;52.012;4.346;2022-08-21T02:01:12;21.70;58.40
51988;DHT22;38003;52.012;4.346;2022-08-21T02:03:40;21.60;58.30
51988;DHT22;38003;52.012;4.346;2022-08-21T02:06:14;21.60;58.30
51988;DHT22;38003;52.012;4.346;2022-08-21T02:08:44;21.60;58.50
51988;DHT22;38003;52.012;4.346;2022-08-21T02:11:12;21.60;58.70
51988;DHT22;38003;52.012;4.346;2022-08-21T02:13:40;21.50;58.60
51988;DHT22;38003;52.012;4.346;2022-08-21T02:16:09;21.50;58.80
51988;DHT22;38003;52.012;4.346;2022-08-21T02:18:39;21.40;58.80
51988;DHT22;38003;52.012;4.346;2022-08-21T02:21:07;21.40;58.60
51988;DHT22;38003;52.012;4.346;2022-08-21T02:23:42;21.40;58.80
51988;DHT22;38003;52.012;4.346;2022-08-21T02:26:15;21.40;58.90
51988;DHT22;38003;52.012;4.346;2022-08-21T02:28:53;21.70;59.00
51988;DHT22;38003;52.012;4.346;2022-08-21T02:31:28;21.40;58.80
51988;DHT22;38003;52.012;4.346;2022-08-21T02:33:57;21.30;59.00
51988;DHT22;38003;52.012;4.346;2022-08-21T02:36:26;21.40;59.00
51988;DHT22;38003;52.012;4.346;2022-08-21T02:38:55;21.30;59.10
51988;DHT22;38003;52.012;4.346;2022-08-21T02:41:23;21.30;59.10
51988;DHT22;38003;52.012;4.346;2022-08-21T02:43:51;21.30;59.10
51988;DHT22;38003;52.012;4.346;2022-08-21T02:46:20;21.30;59.20
51988;DHT22;38003;52.012;4.346;2022-08-21T02:48:48;21.20;59.40
51988;DHT22;38003;52.012;4.346;2022-08-21T02:51:18;21.20;59.30
51988;DHT22;38003;52.012;4.346;2022-08-21T02:53:47;21.20;59.50
51988;DHT22;38003;52.012;4.346;2022-08-21T02:56:18;21.30;59.50
51988;DHT22;38003;52.012;4.346;2022-08-21T02:58:49;21.30;59.60
51988;DHT22;38003;52.012;4.346;2022-08-21T03:01:17;21.40;59.60
51988;DHT22;38003;52.012;4.346;2022-08-21T03:03:47;21.20;59.60
51988;DHT22;38003;52.012;4.346;2022-08-21T03:06:19;21.20;59.60
51988;DHT22;38003;52.012;4.346;2022-08-21T03:08:48;21.20;59.40
51988;DHT22;38003;52.012;4.346;2022-08-21T03:11:17;21.20;59.50
51988;DHT22;38003;52.012;4.346;2022-08-21T03:13:45;21.20;60.00
51988;DHT22;38003;52.012;4.346;2022-08-21T03:16:14;21.20;59.80
51988;DHT22;38003;52.012;4.346;2022-08-21T03:18:42;21.20;59.80
51988;DHT22;38003;52.012;4.346;2022-08-21T03:21:10;21.20;59.70
51988;DHT22;38003;52.012;4.346;2022-08-21T03:23:40;21.20;59.90
51988;DHT22;38003;52.012;4.346;2022-08-21T03:26:09;21.30;60.00
51988;DHT22;38003;52.012;4.346;2022-08-21T03:28:39;21.10;59.70
51988;DHT22;38003;52.012;4.346;2022-08-21T03:31:07;21.40;59.80
51988;DHT22;38003;52.012;4.346;2022-08-21T03:33:35;21.10;59.70
51988;DHT22;38003;52.012;4.346;2022-08-21T03:36:06;21.10;59.80
51988;DHT22;38003;52.012;4.346;2022-08-21T03:38:35;21.10;60.10
51988;DHT22;38003;52.012;4.346;2022-08-21T03:41:03;21.10;60.00
51988;DHT22;38003;52.012;4.346;2022-08-21T03:43:31;21.10;60.00
51988;DHT22;38003;52.012;4.346;2022-08-21T03:46:02;21.10;60.10
51988;DHT22;38003;52.012;4.346;2022-08-21T03:48:31;21.10;60.20
51988;DHT22;38003;52.012;4.346;2022-08-21T03:50:59;21.00;60.20
51988;DHT22;38003;52.012;4.346;2022-08-21T03:53:27;21.00;60.30
51988;DHT22;38003;52.012;4.346;2022-08-21T03:55:55;21.00;60.20
51988;DHT22;38003;52.012;4.346;2022-08-21T03:58:25;21.00;60.20
51988;DHT22;38003;52.012;4.346;2022-08-21T04:00:56;21.20;60.40
51988;DHT22;38003;52.012;4.346;2022-08-21T04:03:27;21.00;60.40
51988;DHT22;38003;52.012;4.346;2022-08-21T04:05:55;21.00;60.30
51988;DHT22;38003;52.012;4.346;2022-08-21T04:08:23;21.00;60.20
51988;DHT22;38003;52.012;4.346;2022-08-21T04:10:54;21.00;60.40
51988;DHT22;38003;52.012;4.346;2022-08-21T04:13:30;21.00;60.60
51988;DHT22;38003;52.012;4.346;2022-08-21T04:16:08;21.00;60.50
51988;DHT22;38003;52.012;4.346;2022-08-21T04:18:38;20.90;60.60
51988;DHT22;38003;52.012;4.346;2022-08-21T04:21:08;20.90;60.60
51988;DHT22;38003;52.012;4.346;2022-08-21T04:23:39;20.90;60.60
51988;DHT22;38003;52.012;4.346;2022-08-21T04:26:07;20.90;60.70
51988;DHT22;38003;52.012;4.346;2022-08-21T04:28:35;20.90;60.70
51988;DHT22;38003;52.012;4.346;2022-08-21T04:31:03;20.90;60.90
51988;DHT22;38003;52.012;4.346;2022-08-21T04:33:31;20.90;60.90
51988;DHT22;38003;52.012;4.346;2022-08-21T04:36:00;20.90;60.80
51988;DHT22;38003;52.012;4.346;2022-08-21T04:38:28;20.90;60.90
51988;DHT22;38003;52.012;4.346;2022-08-21T04:41:03;20.90;60.80
51988;DHT22;38003;52.012;4.346;2022-08-21T04:43:32;20.90;61.00
51988;DHT22;38003;52.012;4.346;2022-08-21T04:46:00;20.80;60.90
51988;DHT22;38003;52.012;4.346;2022-08-21T04:48:28;20.90;60.90
51988;DHT22;38003;52.012;4.346;2022-08-21T04:50:59;21.00;60.90
51988;DHT22;38003;52.012;4.346;2022-08-21T04:53:35;20.90;61.10
51988;DHT22;38003;52.012;4.346;2022-08-21T04:56:08;20.90;61.10
51988;DHT22;38003;52.012;4.346;2022-08-21T04:58:37;20.90;61.10
51988;DHT22;38003;52.012;4.346;2022-08-21T05:01:11;20.90;61.20
51988;DHT22;38003;52.012;4.346;2022-08-21T05:03:41;21.10;62.30
51988;DHT22;38003;52.012;4.346;2022-08-21T05:06:11;20.80;61.20
51988;DHT22;38003;52.012;4.346;2022-08-21T05:08:42;21.20;61.30
51988;DHT22;38003;52.012;4.346;2022-08-21T05:11:12;20.90;61.20
51988;DHT22;38003;52.012;4.346;2022-08-21T05:13:40;20.90;61.10
51988;DHT22;38003;52.012;4.346;2022-08-21T05:16:09;20.90;61.00
51988;DHT22;38003;52.012;4.346;2022-08-21T05:18:37;21.00;61.30
51988;DHT22;38003;52.012;4.346;2022-08-21T05:21:05;20.90;61.20
51988;DHT22;38003;52.012;4.346;2022-08-21T05:23:38;20.90;61.20
51988;DHT22;38003;52.012;4.346;2022-08-21T05:26:09;20.90;61.20
51988;DHT22;38003;52.012;4.346;2022-08-21T05:28:44;20.90;61.10
51988;DHT22;38003;52.012;4.346;2022-08-21T05:31:12;20.90;61.80
51988;DHT22;38003;52.012;4.346;2022-08-21T05:33:40;21.00;61.40
51988;DHT22;38003;52.012;4.346;2022-08-21T05:36:09;20.90;61.50
51988;DHT22;38003;52.012;4.346;2022-08-21T05:38:40;20.90;61.30
51988;DHT22;38003;52.012;4.346;2022-08-21T05:41:11;20.90;61.50
51988;DHT22;38003;52.012;4.346;2022-08-21T05:43:39;20.90;61.50
51988;DHT22;38003;52.012;4.346;2022-08-21T05:46:08;21.00;61.50
51988;DHT22;38003;52.012;4.346;2022-08-21T05:48:39;20.90;61.50
51988;DHT22;38003;52.012;4.346;2022-08-21T05:51:10;21.00;61.30
51988;DHT22;38003;52.012;4.346;2022-08-21T05:53:40;21.00;61.30
51988;DHT22;38003;52.012;4.346;2022-08-21T05:56:13;21.00;61.30
51988;DHT22;38003;52.012;4.346;2022-08-21T05:58:42;21.00;61.30
51988;DHT22;38003;52.012;4.346;2022-08-21T06:01:10;20.90;61.40
51988;DHT22;38003;52.012;4.346;2022-08-21T06:03:40;21.00;61.40
51988;DHT22;38003;52.012;4.346;2022-08-21T06:06:08;21.10;61.40
51988;DHT22;38003;52.012;4.346;2022-08-21T06:08:36;21.00;62.20
51988;DHT22;38003;52.012;4.346;2022-08-21T06:11:08;21.10;61.40
51988;DHT22;38003;52.012;4.346;2022-08-21T06:13:39;21.10;61.50
51988;DHT22;38003;52.012;4.346;2022-08-21T06:16:12;21.10;61.70
51988;DHT22;38003;52.012;4.346;2022-08-21T06:18:42;21.10;61.60
51988;DHT22;38003;52.012;4.346;2022-08-21T06:21:13;21.10;61.50
51988;DHT22;38003;52.012;4.346;2022-08-21T06:23:42;20.90;61.60
51988;DHT22;38003;52.012;4.346;2022-08-21T06:26:18;21.20;61.90
51988;DHT22;38003;52.012;4.346;2022-08-21T06:28:48;21.20;62.60
51988;DHT22;38003;52.012;4.346;2022-08-21T06:31:27;21.30;61.80
51988;DHT22;38003;52.012;4.346;2022-08-21T06:34:02;21.30;61.70
51988;DHT22;38003;52.012;4.346;2022-08-21T06:36:33;21.30;61.60
51988;DHT22;38003;52.012;4.346;2022-08-21T06:39:20;21.30;61.70
51988;DHT22;38003;52.012;4.346;2022-08-21T06:41:58;21.30;62.00
51988;DHT22;38003;52.012;4.346;2022-08-21T06:44:52;21.30;61.90
51988;DHT22;38003;52.012;4.346;2022-08-21T06:47:24;21.40;61.70
51988;DHT22;38003;52.012;4.346;2022-08-21T06:49:52;21.50;62.00
51988;DHT22;38003;52.012;4.346;2022-08-21T06:52:21;21.40;62.00
51988;DHT22;38003;52.012;4.346;2022-08-21T06:54:49;21.50;62.10
51988;DHT22;38003;52.012;4.346;2022-08-21T06:57:17;21.40;62.10
51988;DHT22;38003;52.012;4.346;2022-08-21T06:59:45;21.90;62.20
51988;DHT22;38003;52.012;4.346;2022-08-21T07:02:14;21.60;61.90
51988;DHT22;38003;52.012;4.346;2022-08-21T07:04:43;21.60;62.10
51988;DHT22;38003;52.012;4.346;2022-08-21T07:07:11;21.60;62.30
51988;DHT22;38003;52.012;4.346;2022-08-21T07:09:39;21.60;62.50
51988;DHT22;38003;52.012;4.346;2022-08-21T07:12:10;21.60;62.30
51988;DHT22;38003;52.012;4.346;2022-08-21T07:14:38;21.60;62.60
51988;DHT22;38003;52.012;4.346;2022-08-21T07:17:05;21.60;62.60
51988;DHT22;38003;52.012;4.346;2022-08-21T07:19:35;21.80;62.30
51988;DHT22;38003;52.012;4.346;2022-08-21T07:22:03;21.80;62.40
51988;DHT22;38003;52.012;4.346;2022-08-21T07:24:34;21.90;62.40
51988;DHT22;38003;52.012;4.346;2022-08-21T07:27:02;21.90;62.10
51988;DHT22;38003;52.012;4.346;2022-08-21T07:29:35;22.00;62.10
51988;DHT22;38003;52.012;4.346;2022-08-21T07:32:06;22.10;62.10
51988;DHT22;38003;52.012;4.346;2022-08-21T07:34:38;22.20;62.40
51988;DHT22;38003;52.012;4.346;2022-08-21T07:37:07;22.30;62.40
51988;DHT22;38003;52.012;4.346;2022-08-21T07:39:36;22.50;62.60
51988;DHT22;38003;52.012;4.346;2022-08-21T07:42:04;22.40;62.50
51988;DHT22;38003;52.012;4.346;2022-08-21T07:44:34;22.40;62.30
51988;DHT22;38003;52.012;4.346;2022-08-21T07:47:02;22.50;62.10
51988;DHT22;38003;52.012;4.346;2022-08-21T07:49:32;22.60;62.00
51988;DHT22;38003;52.012;4.346;2022-08-21T07:52:04;22.60;62.10
51988;DHT22;38003;52.012;4.346;2022-08-21T07:54:33;22.50;62.10
51988;DHT22;38003;52.012;4.346;2022-08-21T07:57:01;22.50;62.10
51988;DHT22;38003;52.012;4.346;2022-08-21T07:59:29;22.60;61.90
51988;DHT22;38003;52.012;4.346;2022-08-21T08:01:57;22.70;62.10
51988;DHT22;38003;52.012;4.346;2022-08-21T08:04:32;22.60;62.10
51988;DHT22;38003;52.012;4.346;2022-08-21T08:07:02;22.80;62.00
51988;DHT22;38003;52.012;4.346;2022-08-21T08:09:30;22.70;62.10
51988;DHT22;38003;52.012;4.346;2022-08-21T08:12:02;22.80;61.80
51988;DHT22;38003;52.012;4.346;2022-08-21T08:14:30;22.80;61.90
51988;DHT22;38003;52.012;4.346;2022-08-21T08:16:58;22.90;62.00
51988;DHT22;38003;52.012;4.346;2022-08-21T08:19:28;22.80;61.80
51988;DHT22;38003;52.012;4.346;2022-08-21T08:21:56;23.10;61.80
51988;DHT22;38003;52.012;4.346;2022-08-21T08:24:25;23.10;61.70
51988;DHT22;38003;52.012;4.346;2022-08-21T08:26:53;23.20;61.70
51988;DHT22;38003;52.012;4.346;2022-08-21T08:29:23;23.20;61.50
51988;DHT22;38003;52.012;4.346;2022-08-21T08:31:51;23.30;61.50
51988;DHT22;38003;52.012;4.346;2022-08-21T08:34:19;23.40;61.30
51988;DHT22;38003;52.012;4.346;2022-08-21T08:36:51;23.40;61.10
51988;DHT22;38003;52.012;4.346;2022-08-21T08:39:20;23.50;61.10
51988;DHT22;38003;52.012;4.346;2022-08-21T08:41:59;23.60;60.80
51988;DHT22;38003;52.012;4.346;2022-08-21T08:44:55;23.40;60.40
51988;DHT22;38003;52.012;4.346;2022-08-21T08:47:25;23.50;60.20
51988;DHT22;38003;52.012;4.346;2022-08-21T08:49:58;23.30;59.50
51988;DHT22;38003;52.012;4.346;2022-08-21T08:52:30;23.40;59.80
51988;DHT22;38003;52.012;4.346;2022-08-21T08:55:22;23.30;59.50
51988;DHT22;38003;52.012;4.346;2022-08-21T08:57:54;23.30;59.10
51988;DHT22;38003;52.012;4.346;2022-08-21T09:00:23;23.20;59.20
51988;DHT22;38003;52.012;4.346;2022-08-21T09:02:54;23.20;59.20
51988;DHT22;38003;52.012;4.346;2022-08-21T09:05:25;23.20;59.20
51988;DHT22;38003;52.012;4.346;2022-08-21T09:08:13;23.10;58.90
51988;DHT22;38003;52.012;4.346;2022-08-21T09:10:53;23.10;59.10
51988;DHT22;38003;52.012;4.346;2022-08-21T09:13:36;23.00;58.90
51988;DHT22;38003;52.012;4.346;2022-08-21T09:16:13;23.10;59.00
51988;DHT22;38003;52.012;4.346;2022-08-21T09:18:52;23.00;58.70
51988;DHT22;38003;52.012;4.346;2022-08-21T09:21:35;23.10;58.80
51988;DHT22;38003;52.012;4.346;2022-08-21T09:24:17;23.10;58.70
51988;DHT22;38003;52.012;4.346;2022-08-21T09:26:50;23.60;58.90
51988;DHT22;38003;52.012;4.346;2022-08-21T09:29:25;23.20;58.50
51988;DHT22;38003;52.012;4.346;2022-08-21T09:31:54;23.20;58.50
51988;DHT22;38003;52.012;4.346;2022-08-21T09:34:26;23.40;58.40
51988;DHT22;38003;52.012;4.346;2022-08-21T09:36:54;23.20;58.50
51988;DHT22;38003;52.012;4.346;2022-08-21T09:39:26;23.20;58.20
51988;DHT22;38003;52.012;4.346;2022-08-21T09:41:59;23.20;58.70
51988;DHT22;38003;52.012;4.346;2022-08-21T09:44:33;23.20;58.80
51988;DHT22;38003;52.012;4.346;2022-08-21T09:47:02;23.30;59.90
51988;DHT22;38003;52.012;4.346;2022-08-21T09:49:32;23.30;59.10
51988;DHT22;38003;52.012;4.346;2022-08-21T09:52:02;23.30;59.20
51988;DHT22;38003;52.012;4.346;2022-08-21T09:54:33;23.30;59.50
51988;DHT22;38003;52.012;4.346;2022-08-21T09:57:14;23.40;58.90
51988;DHT22;38003;52.012;4.346;2022-08-21T10:00:10;23.40;58.90
51988;DHT22;38003;52.012;4.346;2022-08-21T10:02:43;23.50;58.70
51988;DHT22;38003;52.012;4.346;2022-08-21T10:05:17;23.70;58.50
51988;DHT22;38003;52.012;4.346;2022-08-21T10:07:45;23.90;58.50
51988;DHT22;38003;52.012;4.346;2022-08-21T10:10:16;24.00;57.90
51988;DHT22;38003;52.012;4.346;2022-08-21T10:12:49;24.20;57.50
51988;DHT22;38003;52.012;4.346;2022-08-21T10:15:24;24.00;56.60
51988;DHT22;38003;52.012;4.346;2022-08-21T10:18:02;24.20;56.70
51988;DHT22;38003;52.012;4.346;2022-08-21T10:20:37;24.30;56.10
51988;DHT22;38003;52.012;4.346;2022-08-21T10:23:22;24.30;55.80
51988;DHT22;38003;52.012;4.346;2022-08-21T10:25:57;24.30;56.20
51988;DHT22;38003;52.012;4.346;2022-08-21T10:28:46;24.20;55.50
51988;DHT22;38003;52.012;4.346;2022-08-21T10:31:23;24.50;55.80
51988;DHT22;38003;52.012;4.346;2022-08-21T10:33:56;24.60;55.10
51988;DHT22;38003;52.012;4.346;2022-08-21T10:36:33;24.80;55.10
51988;DHT22;38003;52.012;4.346;2022-08-21T10:39:12;25.10;55.20
51988;DHT22;38003;52.012;4.346;2022-08-21T10:42:17;25.10;54.10
51988;DHT22;38003;52.012;4.346;2022-08-21T10:45:03;25.40;53.80
51988;DHT22;38003;52.012;4.346;2022-08-21T10:47:40;25.50;53.50
51988;DHT22;38003;52.012;4.346;2022-08-21T10:50:14;25.60;53.60
51988;DHT22;38003;52.012;4.346;2022-08-21T10:52:56;25.60;53.30
51988;DHT22;38003;52.012;4.346;2022-08-21T10:55:31;25.70;53.00
51988;DHT22;38003;52.012;4.346;2022-08-21T10:58:09;25.80;51.80
51988;DHT22;38003;52.012;4.346;2022-08-21T11:00:41;25.70;52.20
51988;DHT22;38003;52.012;4.346;2022-08-21T11:03:16;25.80;52.20
51988;DHT22;38003;52.012;4.346;2022-08-21T11:05:48;26.00;52.50
51988;DHT22;38003;52.012;4.346;2022-08-21T11:08:23;26.30;52.40
51988;DHT22;38003;52.012;4.346;2022-08-21T11:10:57;26.60;52.20
51988;DHT22;38003;52.012;4.346;2022-08-21T11:13:31;26.60;51.00
51988;DHT22;38003;52.012;4.346;2022-08-21T11:16:03;26.70;51.20
51988;DHT22;38003;52.012;4.346;2022-08-21T11:18:38;26.60;50.40
51988;DHT22;38003;52.012;4.346;2022-08-21T11:21:15;26.70;50.30
51988;DHT22;38003;52.012;4.346;2022-08-21T11:23:52;26.70;50.30
51988;DHT22;38003;52.012;4.346;2022-08-21T11:26:28;26.80;50.40
51988;DHT22;38003;52.012;4.346;2022-08-21T11:29:01;26.70;49.70
51988;DHT22;38003;52.012;4.346;2022-08-21T11:31:40;27.00;50.40
51988;DHT22;38003;52.012;4.346;2022-08-21T11:34:19;26.90;49.30
51988;DHT22;38003;52.012;4.346;2022-08-21T11:36:59;26.90;48.90
51988;DHT22;38003;52.012;4.346;2022-08-21T11:39:38;26.80;49.20
51988;DHT22;38003;52.012;4.346;2022-08-21T11:42:18;26.80;47.40
51988;DHT22;38003;52.012;4.346;2022-08-21T11:44:53;26.70;48.80
51988;DHT22;38003;52.012;4.346;2022-08-21T11:47:32;26.70;48.70
51988;DHT22;38003;52.012;4.346;2022-08-21T11:50:15;26.80;48.50
51988;DHT22;38003;52.012;4.346;2022-08-21T11:53:04;26.80;47.10
51988;DHT22;38003;52.012;4.346;2022-08-21T11:55:40;26.90;48.20
51988;DHT22;38003;52.012;4.346;2022-08-21T11:58:14;26.90;47.80
51988;DHT22;38003;52.012;4.346;2022-08-21T12:00:47;26.80;48.40
51988;DHT22;38003;52.012;4.346;2022-08-21T12:03:25;26.90;48.40
51988;DHT22;38003;52.012;4.346;2022-08-21T12:05:57;27.00;47.50
51988;DHT22;38003;52.012;4.346;2022-08-21T12:08:28;26.90;47.80
51988;DHT22;38003;52.012;4.346;2022-08-21T12:11:02;27.20;48.20
51988;DHT22;38003;52.012;4.346;2022-08-21T12:13:33;27.10;47.60
51988;DHT22;38003;52.012;4.346;2022-08-21T12:16:09;27.30;47.70
51988;DHT22;38003;52.012;4.346;2022-08-21T12:18:37;27.30;47.00
51988;DHT22;38003;52.012;4.346;2022-08-21T12:21:20;27.20;47.70
51988;DHT22;38003;52.012;4.346;2022-08-21T12:24:00;27.20;47.30
51988;DHT22;38003;52.012;4.346;2022-08-21T12:26:31;27.30;46.20
51988;DHT22;38003;52.012;4.346;2022-08-21T12:29:11;27.50;47.00
51988;DHT22;38003;52.012;4.346;2022-08-21T12:31:55;27.40;47.40
51988;DHT22;38003;52.012;4.346;2022-08-21T12:34:30;27.40;47.30
51988;DHT22;38003;52.012;4.346;2022-08-21T12:37:04;27.70;47.00
51988;DHT22;38003;52.012;4.346;2022-08-21T12:39:36;27.60;44.30
51988;DHT22;38003;52.012;4.346;2022-08-21T12:42:11;27.80;46.20
51988;DHT22;38003;52.012;4.346;2022-08-21T12:44:45;27.80;46.00
51988;DHT22;38003;52.012;4.346;2022-08-21T12:47:21;27.50;46.10
51988;DHT22;38003;52.012;4.346;2022-08-21T12:49:54;27.50;46.10
51988;DHT22;38003;52.012;4.346;2022-08-21T12:52:34;27.30;45.70
51988;DHT22;38003;52.012;4.346;2022-08-21T12:55:06;27.10;44.60
51988;DHT22;38003;52.012;4.346;2022-08-21T12:57:36;26.80;46.40
51988;DHT22;38003;52.012;4.346;2022-08-21T13:00:07;26.70;45.90
51988;DHT22;38003;52.012;4.346;2022-08-21T13:02:42;26.70;44.70
51988;DHT22;38003;52.012;4.346;2022-08-21T13:05:15;26.80;45.60
51988;DHT22;38003;52.012;4.346;2022-08-21T13:07:46;27.00;45.60
51988;DHT22;38003;52.012;4.346;2022-08-21T13:10:19;27.30;46.00
51988;DHT22;38003;52.012;4.346;2022-08-21T13:12:48;27.30;46.40
51988;DHT22;38003;52.012;4.346;2022-08-21T13:15:23;27.00;47.30
51988;DHT22;38003;52.012;4.346;2022-08-21T13:17:59;27.20;47.90
51988;DHT22;38003;52.012;4.346;2022-08-21T13:20:30;27.10;47.70
51988;DHT22;38003;52.012;4.346;2022-08-21T13:23:02;27.10;48.20
51988;DHT22;38003;52.012;4.346;2022-08-21T13:25:35;27.00;48.20
51988;DHT22;38003;52.012;4.346;2022-08-21T13:28:06;26.90;48.40
51988;DHT22;38003;52.012;4.346;2022-08-21T13:30:39;27.00;48.40
51988;DHT22;38003;52.012;4.346;2022-08-21T13:33:07;26.80;47.40
51988;DHT22;38003;52.012;4.346;2022-08-21T13:35:48;26.60;48.30
51988;DHT22;38003;52.012;4.346;2022-08-21T13:38:20;26.50;48.50
51988;DHT22;38003;52.012;4.346;2022-08-21T13:40:56;26.40;48.60
51988;DHT22;38003;52.012;4.346;2022-08-21T13:43:27;26.20;48.90
51988;DHT22;38003;52.012;4.346;2022-08-21T13:45:56;26.20;49.20
51988;DHT22;38003;52.012;4.346;2022-08-21T13:48:27;26.20;49.20
51988;DHT22;38003;52.012;4.346;2022-08-21T13:50:56;26.30;48.90
51988;DHT22;38003;52.012;4.346;2022-08-21T13:53:33;26.20;49.30
51988;DHT22;38003;52.012;4.346;2022-08-21T13:56:03;26.10;48.90
51988;DHT22;38003;52.012;4.346;2022-08-21T13:58:40;25.90;49.50
51988;DHT22;38003;52.012;4.346;2022-08-21T14:01:18;26.00;49.90
51988;DHT22;38003;52.012;4.346;2022-08-21T14:03:48;25.80;49.10
51988;DHT22;38003;52.012;4.346;2022-08-21T14:06:18;25.70;50.10
51988;DHT22;38003;52.012;4.346;2022-08-21T14:08:52;25.70;50.40
51988;DHT22;38003;52.012;4.346;2022-08-21T14:11:22;25.80;50.50
51988;DHT22;38003;52.012;4.346;2022-08-21T14:13:56;25.80;50.10
51988;DHT22;38003;52.012;4.346;2022-08-21T14:16:26;25.70;50.50
51988;DHT22;38003;52.012;4.346;2022-08-21T14:19:09;25.80;50.70
51988;DHT22;38003;52.012;4.346;2022-08-21T14:21:39;25.80;50.30
51988;DHT22;38003;52.012;4.346;2022-08-21T14:24:11;25.60;50.60
51988;DHT22;38003;52.012;4.346;2022-08-21T14:26:46;25.40;50.80
51988;DHT22;38003;52.012;4.346;2022-08-21T14:29:18;25.40;51.00
51988;DHT22;38003;52.012;4.346;2022-08-21T14:31:51;25.40;52.00
51988;DHT22;38003;52.012;4.346;2022-08-21T14:34:19;25.20;51.00
51988;DHT22;38003;52.012;4.346;2022-08-21T14:36:48;25.20;50.70
51988;DHT22;38003;52.012;4.346;2022-08-21T14:39:18;25.10;50.90
51988;DHT22;38003;52.012;4.346;2022-08-21T14:41:46;25.10;51.30
51988;DHT22;38003;52.012;4.346;2022-08-21T14:44:17;25.00;50.90
51988;DHT22;38003;52.012;4.346;2022-08-21T14:46:45;25.10;51.00
51988;DHT22;38003;52.012;4.346;2022-08-21T14:49:23;25.10;50.60
51988;DHT22;38003;52.012;4.346;2022-08-21T14:51:52;25.00;51.10
51988;DHT22;38003;52.012;4.346;2022-08-21T14:54:26;25.00;51.00
51988;DHT22;38003;52.012;4.346;2022-08-21T14:56:59;25.10;51.10
51988;DHT22;38003;52.012;4.346;2022-08-21T14:59:28;25.30;51.10
51988;DHT22;38003;52.012;4.346;2022-08-21T15:01:56;25.00;51.20
51988;DHT22;38003;52.012;4.346;2022-08-21T15:04:25;25.00;51.30
51988;DHT22;38003;52.012;4.346;2022-08-21T15:06:53;25.20;51.50
51988;DHT22;38003;52.012;4.346;2022-08-21T15:09:21;25.20;51.40
51988;DHT22;38003;52.012;4.346;2022-08-21T15:11:51;25.20;51.40
51988;DHT22;38003;52.012;4.346;2022-08-21T15:14:21;25.20;51.60
51988;DHT22;38003;52.012;4.346;2022-08-21T15:16:53;25.40;51.70
51988;DHT22;38003;52.012;4.346;2022-08-21T15:19:21;25.20;51.20
51988;DHT22;38003;52.012;4.346;2022-08-21T15:21:49;25.40;51.60
51988;DHT22;38003;52.012;4.346;2022-08-21T15:24:17;25.30;51.50
51988;DHT22;38003;52.012;4.346;2022-08-21T15:26:46;25.30;51.70
51988;DHT22;38003;52.012;4.346;2022-08-21T15:29:15;25.40;51.90
51988;DHT22;38003;52.012;4.346;2022-08-21T15:31:54;25.50;51.60
51988;DHT22;38003;52.012;4.346;2022-08-21T15:34:23;25.50;51.60
51988;DHT22;38003;52.012;4.346;2022-08-21T15:36:53;25.70;51.70
51988;DHT22;38003;52.012;4.346;2022-08-21T15:39:23;25.60;51.50
51988;DHT22;38003;52.012;4.346;2022-08-21T15:41:57;25.50;51.50
51988;DHT22;38003;52.012;4.346;2022-08-21T15:44:33;25.50;51.30
51988;DHT22;38003;52.012;4.346;2022-08-21T15:47:01;25.50;51.10
51988;DHT22;38003;52.012;4.346;2022-08-21T15:49:29;25.50;51.00
51988;DHT22;38003;52.012;4.346;2022-08-21T15:51:57;25.30;50.90
51988;DHT22;38003;52.012;4.346;2022-08-21T15:54:25;25.40;51.00
51988;DHT22;38003;52.012;4.346;2022-08-21T15:56:53;25.30;51.00
51988;DHT22;38003;52.012;4.346;2022-08-21T15:59:22;25.40;51.00